createdAt,value
2019-02-21T00:03:33.221Z,80.68
2019-02-21T00:07:38.561Z,80.73
2019-02-21T00:11:43.988Z,81.52
2019-02-21T00:15:49.426Z,81.11
2019-02-21T00:19:54.785Z,81.98
2019-02-21T00:24:00.203Z,81.69
2019-02-21T00:28:05.597Z,81.99
2019-02-21T00:32:11.055Z,82.83
2019-02-21T00:36:16.393Z,83.21
2019-02-21T00:40:22.107Z,82.94
2019-02-21T00:44:27.772Z,83.18
2019-02-21T00:48:33.231Z,83.70
2019-02-21T00:52:38.739Z,83.80
2019-02-21T00:56:44.048Z,84.31
2019-02-21T01:00:49.451Z,83.90
2019-02-21T01:04:54.957Z,83.54
2019-02-21T01:09:00.494Z,83.96
2019-02-21T01:13:05.931Z,83.43
2019-02-21T01:17:11.305Z,83.90
2019-02-21T01:21:16.552Z,84.66
2019-02-21T01:25:21.977Z,84.41
2019-02-21T01:29:27.691Z,84.33
2019-02-21T01:33:33.397Z,84.64
2019-02-21T01:37:38.900Z,83.67
2019-02-21T01:41:44.423Z,83.63
2019-02-21T01:45:49.756Z,82.61
2019-02-21T01:49:55.161Z,83.06
2019-02-21T01:54:00.566Z,83.65
2019-02-21T01:58:05.930Z,84.85
2019-02-21T02:02:11.798Z,85.20
2019-02-21T02:06:17.231Z,85.49
2019-02-21T02:10:22.624Z,84.87
2019-02-21T02:14:28.007Z,84.02
2019-02-21T02:18:33.411Z,84.05
2019-02-21T02:22:39.450Z,83.26
2019-02-21T02:26:44.931Z,82.73
2019-02-21T02:30:50.708Z,82.87
2019-02-21T02:34:56.058Z,83.25
2019-02-21T02:39:01.841Z,84.71
2019-02-21T02:43:07.321Z,84.54
2019-02-21T02:47:13.001Z,84.44
2019-02-21T02:51:18.362Z,84.93
2019-02-21T02:55:23.692Z,84.71
2019-02-21T02:59:40.367Z,85.76
2019-02-21T03:03:36.723Z,85.51
2019-02-21T03:07:42.013Z,85.09
2019-02-21T03:11:47.429Z,85.16
2019-02-21T03:15:52.857Z,85.17
2019-02-21T03:19:59.138Z,85.16
2019-02-21T03:24:05.040Z,85.42
2019-02-21T03:28:10.339Z,85.44
2019-02-21T03:32:15.668Z,85.68
2019-02-21T03:36:21.147Z,85.23
2019-02-21T03:40:26.574Z,85.43
2019-02-21T03:44:31.897Z,85.47
2019-02-21T03:48:37.505Z,85.82
2019-02-21T03:52:43.003Z,85.89
2019-02-21T03:56:48.796Z,85.67
2019-02-21T04:00:54.260Z,85.53
2019-02-21T04:04:59.678Z,85.30
2019-02-21T04:09:08.351Z,85.18
2019-02-21T04:13:15.285Z,85.25
2019-02-21T04:17:20.767Z,85.15
2019-02-21T04:21:26.728Z,85.18
2019-02-21T04:25:32.121Z,84.78
2019-02-21T04:29:37.875Z,85.11
2019-02-21T04:33:43.190Z,85.13
2019-02-21T04:37:48.640Z,85.41
2019-02-21T04:41:54.253Z,85.65
2019-02-21T04:46:00.000Z,85.44
2019-02-21T04:50:05.809Z,85.43
2019-02-21T04:54:11.225Z,85.54
2019-02-21T04:58:16.585Z,85.52
2019-02-21T05:02:29.095Z,85.47
2019-02-21T05:06:29.553Z,86.07
2019-02-21T05:10:34.993Z,86.34
2019-02-21T05:14:40.334Z,86.22
2019-02-21T05:18:46.175Z,86.79
2019-02-21T05:22:51.695Z,86.63
2019-02-21T05:27:03.730Z,86.54
2019-02-21T05:31:31.370Z,86.71
2019-02-21T05:36:14.222Z,86.95
2019-02-21T05:40:37.156Z,87.21
2019-02-21T05:44:47.430Z,87.21
2019-02-21T05:49:04.841Z,87.54
2019-02-21T05:53:33.747Z,87.38
2019-02-21T05:57:52.314Z,87.46
2019-02-21T06:02:23.076Z,87.17
2019-02-21T06:06:48.379Z,87.13
2019-02-21T06:11:11.770Z,87.33
2019-02-21T06:15:32.009Z,87.30
2019-02-21T06:19:50.138Z,87.37
2019-02-21T06:24:23.797Z,87.52
2019-02-21T06:28:32.570Z,87.76
2019-02-21T06:32:40.669Z,87.75
2019-02-21T06:36:45.945Z,87.80
2019-02-21T06:40:51.234Z,87.62
2019-02-21T06:44:56.570Z,87.83
2019-02-21T06:49:02.067Z,87.78
2019-02-21T06:53:07.504Z,88.11
2019-02-21T06:57:12.829Z,88.22
2019-02-21T07:01:26.451Z,88.29
2019-02-21T07:05:25.495Z,88.53
2019-02-21T07:09:30.990Z,88.69
2019-02-21T07:13:36.330Z,88.87
2019-02-21T07:17:49.195Z,88.97
2019-02-21T07:21:49.316Z,89.00
2019-02-21T07:26:06.957Z,89.11
2019-02-21T07:30:19.984Z,89.10
2019-02-21T07:34:19.897Z,89.01
2019-02-21T07:38:25.576Z,88.91
2019-02-21T07:42:31.294Z,88.72
2019-02-21T07:46:36.839Z,88.44
2019-02-21T07:50:42.320Z,88.36
2019-02-21T07:54:50.857Z,88.18
2019-02-21T07:58:57.577Z,87.65
2019-02-21T08:03:02.381Z,87.48
2019-02-21T08:07:07.727Z,87.25
2019-02-21T08:11:17.180Z,86.26
2019-02-21T08:15:22.612Z,86.00
2019-02-21T08:19:28.087Z,85.24
2019-02-21T08:23:33.580Z,84.18
2019-02-21T08:27:38.953Z,82.78
2019-02-21T08:31:44.283Z,81.91
2019-02-21T08:35:49.648Z,81.67
2019-02-21T08:39:55.143Z,81.40
2019-02-21T08:44:00.526Z,80.86
2019-02-21T08:48:06.063Z,80.62
2019-02-21T08:52:12.696Z,79.99
2019-02-21T08:56:18.563Z,80.40
2019-02-21T09:00:24.027Z,80.46
2019-02-21T09:04:29.840Z,79.92
2019-02-21T09:08:37.035Z,80.42
2019-02-21T09:12:47.917Z,79.44
2019-02-21T09:16:50.405Z,78.92
2019-02-21T09:20:55.899Z,77.90
2019-02-21T09:25:02.810Z,77.13
2019-02-21T09:29:08.542Z,76.11
2019-02-21T09:33:17.334Z,75.74
2019-02-21T09:37:21.163Z,73.85
2019-02-21T09:41:28.704Z,73.69
2019-02-21T09:45:34.020Z,73.46
2019-02-21T09:49:39.279Z,72.82
2019-02-21T09:53:44.720Z,72.75
2019-02-21T09:57:50.163Z,72.01
2019-02-21T10:01:57.560Z,72.73
2019-02-21T10:06:02.619Z,72.32
2019-02-21T10:10:11.669Z,72.63
2019-02-21T10:14:17.019Z,72.83
2019-02-21T10:18:22.376Z,71.85
2019-02-21T10:22:27.737Z,71.78
2019-02-21T10:26:33.205Z,71.59
2019-02-21T10:30:38.648Z,70.92
2019-02-21T10:34:44.103Z,70.09
2019-02-21T10:38:49.721Z,69.25
2019-02-21T10:42:55.511Z,68.92
2019-02-21T10:47:01.015Z,68.19
2019-02-21T10:51:06.482Z,67.43
2019-02-21T10:55:12.144Z,65.47
2019-02-21T10:59:17.679Z,66.24
2019-02-21T11:03:23.055Z,65.94
2019-02-21T11:07:28.499Z,65.37
2019-02-21T11:11:33.917Z,65.21
2019-02-21T11:15:41.934Z,64.62
2019-02-21T11:19:46.708Z,63.21
2019-02-21T11:23:52.230Z,63.89
2019-02-21T11:27:57.678Z,62.56
2019-02-21T11:32:03.073Z,62.59
2019-02-21T11:36:08.549Z,60.60
2019-02-21T11:40:16.132Z,60.12
2019-02-21T11:44:21.693Z,59.30
2019-02-21T11:48:26.954Z,57.73
2019-02-21T11:52:32.435Z,58.45
2019-02-21T11:56:37.846Z,59.83
2019-02-21T12:00:43.227Z,58.27
2019-02-21T12:04:48.594Z,57.37
2019-02-21T12:08:54.101Z,57.59
2019-02-21T12:12:59.539Z,56.88
2019-02-21T12:17:04.972Z,57.36
2019-02-21T12:21:11.686Z,57.23
2019-02-21T12:25:17.817Z,58.08
2019-02-21T12:29:23.418Z,57.03
2019-02-21T12:33:28.838Z,56.88
2019-02-21T12:37:34.294Z,57.01
2019-02-21T12:41:39.754Z,56.52
2019-02-21T12:45:45.406Z,55.35
2019-02-21T12:49:50.710Z,55.85
2019-02-21T12:53:56.217Z,56.42
2019-02-21T12:58:01.605Z,56.50
2019-02-21T13:02:07.051Z,60.14
2019-02-21T13:06:12.497Z,61.58
2019-02-21T13:10:19.111Z,63.34
2019-02-21T13:14:24.617Z,63.26
2019-02-21T13:18:30.178Z,64.09
2019-02-21T13:22:35.726Z,63.72
2019-02-21T13:26:41.102Z,63.69
2019-02-21T13:30:46.645Z,64.71
2019-02-21T13:34:52.147Z,64.71
2019-02-21T13:38:58.057Z,63.27
2019-02-21T13:43:03.326Z,63.88
2019-02-21T13:47:08.901Z,64.63
2019-02-21T13:51:14.434Z,63.63
2019-02-21T13:55:19.923Z,63.13
2019-02-21T13:59:25.247Z,63.14
2019-02-21T14:03:30.733Z,63.20
2019-02-21T14:07:37.353Z,62.64
2019-02-21T14:11:42.954Z,63.01
2019-02-21T14:15:48.388Z,63.57
2019-02-21T14:19:53.766Z,63.37
2019-02-21T14:23:59.184Z,62.55
2019-02-21T14:28:04.618Z,62.94
2019-02-21T14:32:10.406Z,61.84
2019-02-21T14:36:19.105Z,62.40
2019-02-21T14:40:23.372Z,61.44
2019-02-21T14:44:28.765Z,60.84
2019-02-21T14:48:34.646Z,60.00
2019-02-21T14:52:40.108Z,60.24
2019-02-21T14:56:45.536Z,60.18
2019-02-21T15:00:50.955Z,61.01
2019-02-21T15:04:56.403Z,61.21
2019-02-21T15:09:01.837Z,61.12
2019-02-21T15:13:07.274Z,60.14
2019-02-21T15:17:12.950Z,59.68
2019-02-21T15:21:18.436Z,59.71
2019-02-21T15:25:23.873Z,59.63
2019-02-21T15:29:29.327Z,60.59
2019-02-21T15:33:34.913Z,59.91
2019-02-21T15:37:40.365Z,59.56
2019-02-21T15:41:45.986Z,59.30
2019-02-21T15:45:51.260Z,60.07
2019-02-21T15:49:56.824Z,60.12
2019-02-21T15:54:02.316Z,60.86
2019-02-21T15:58:07.790Z,59.81
2019-02-21T16:02:13.159Z,60.83
2019-02-21T16:06:18.626Z,60.86
2019-02-21T16:10:24.364Z,59.88
2019-02-21T16:14:30.060Z,59.85
2019-02-21T16:18:35.505Z,60.20
2019-02-21T16:22:40.954Z,60.40
2019-02-21T16:26:46.357Z,60.80
2019-02-21T16:30:51.761Z,60.97
2019-02-21T16:34:57.284Z,61.66
2019-02-21T16:39:04.426Z,62.70
2019-02-21T16:43:10.231Z,61.86
2019-02-21T16:47:15.656Z,61.40
2019-02-21T16:51:22.245Z,61.79
2019-02-21T16:55:28.233Z,61.75
2019-02-21T16:59:33.552Z,62.20
2019-02-21T17:03:38.954Z,61.80
2019-02-21T17:07:44.743Z,62.77
2019-02-21T17:11:50.136Z,62.80
2019-02-21T17:15:55.612Z,63.69
2019-02-21T17:20:01.424Z,64.74
2019-02-21T17:24:06.919Z,67.32
2019-02-21T17:28:12.344Z,69.21
2019-02-21T17:32:17.699Z,71.39
2019-02-21T17:36:23.315Z,71.56
2019-02-21T17:40:28.767Z,72.20
2019-02-21T17:44:34.333Z,71.72
2019-02-21T17:48:39.786Z,71.09
2019-02-21T17:52:45.490Z,71.42
2019-02-21T17:56:51.095Z,71.12
2019-02-21T18:00:56.564Z,71.24
2019-02-21T18:05:02.052Z,71.79
2019-02-21T18:09:08.628Z,72.27
2019-02-21T18:13:14.046Z,72.05
2019-02-21T18:17:19.470Z,71.53
2019-02-21T18:21:24.940Z,72.91
2019-02-21T18:25:45.207Z,72.42
2019-02-21T18:29:51.022Z,72.31
2019-02-21T18:33:57.065Z,72.31
2019-02-21T18:38:02.506Z,73.22
2019-02-21T18:42:08.118Z,72.50
2019-02-21T18:46:13.879Z,72.36
2019-02-21T18:50:19.657Z,73.30
2019-02-21T18:54:25.408Z,74.74
2019-02-21T18:58:30.896Z,73.87
2019-02-21T19:02:36.379Z,72.09
2019-02-21T19:06:41.923Z,73.70
2019-02-21T19:10:47.781Z,72.64
2019-02-21T19:14:53.177Z,73.74
2019-02-21T19:18:58.850Z,73.67
2019-02-21T19:23:04.373Z,73.41
2019-02-21T19:27:09.955Z,73.62
2019-02-21T19:31:19.213Z,73.16
2019-02-21T19:35:24.927Z,73.01
2019-02-21T19:39:30.300Z,73.05
2019-02-21T19:43:35.822Z,73.35
2019-02-21T19:47:41.176Z,73.86
2019-02-21T19:51:46.797Z,73.70
2019-02-21T19:55:52.279Z,73.41
2019-02-21T19:59:57.821Z,73.23
2019-02-21T20:04:03.163Z,73.88
2019-02-21T20:08:09.182Z,73.18
2019-02-21T20:12:14.597Z,73.42
2019-02-21T20:16:20.256Z,74.02
2019-02-21T20:20:25.706Z,73.97
2019-02-21T20:24:31.371Z,74.41
2019-02-21T20:28:36.909Z,74.58
2019-02-21T20:32:42.413Z,75.13
2019-02-21T20:36:50.954Z,75.47
2019-02-21T20:40:54.973Z,75.53
2019-02-21T20:45:01.836Z,76.22
2019-02-21T20:49:07.199Z,76.28
2019-02-21T20:53:12.678Z,76.85
2019-02-21T20:57:21.046Z,77.57
2019-02-21T21:01:26.588Z,79.54
2019-02-21T21:05:32.211Z,80.17
2019-02-21T21:09:37.680Z,80.92
2019-02-21T21:13:44.129Z,82.87
2019-02-21T21:17:49.722Z,82.88
2019-02-21T21:21:55.036Z,82.54
2019-02-21T21:26:00.407Z,83.24
2019-02-21T21:30:06.527Z,82.30
2019-02-21T21:34:12.221Z,84.21
2019-02-21T21:38:24.194Z,84.38
2019-02-21T21:42:24.608Z,84.72
2019-02-21T21:46:30.069Z,84.59
2019-02-21T21:50:35.634Z,85.17
2019-02-21T21:54:41.170Z,85.24
2019-02-21T21:58:46.536Z,86.37
2019-02-21T22:02:51.936Z,86.39
2019-02-21T22:06:57.364Z,86.51
2019-02-21T22:11:02.795Z,86.94
2019-02-21T22:15:09.804Z,86.58
2019-02-21T22:19:15.185Z,86.43
2019-02-21T22:23:20.868Z,86.90
2019-02-21T22:27:26.591Z,87.65
2019-02-21T22:31:31.945Z,87.60
2019-02-21T22:35:37.399Z,87.27
2019-02-21T22:39:42.734Z,87.74
2019-02-21T22:43:48.102Z,87.16
2019-02-21T22:47:53.526Z,87.37
2019-02-21T22:51:58.987Z,87.55
2019-02-21T22:56:04.573Z,88.15
2019-02-21T23:00:59.528Z,87.72
2019-02-21T23:06:00.877Z,87.71
2019-02-21T23:10:06.585Z,87.84
2019-02-21T23:14:12.180Z,87.73
2019-02-21T23:18:17.589Z,87.52
2019-02-21T23:22:22.955Z,87.49
2019-02-21T23:26:28.806Z,87.84
2019-02-21T23:30:34.481Z,87.87
2019-02-21T23:34:43.026Z,88.46
2019-02-21T23:38:48.474Z,88.44
2019-02-21T23:42:53.883Z,88.63
2019-02-21T23:46:59.315Z,88.68
2019-02-21T23:51:04.664Z,88.83
2019-02-21T23:55:10.112Z,88.51
2019-02-21T23:59:16.122Z,88.38
